Time;durP1;ratioP1;P1;durP2;ratioP2;P2;SDS_P1;SDS_P2;PMS_P1;PMS_P2;Temp;Humidity;BMP_temperature;BMP_pressure;BME280_temperature;BME280_humidity;BME280_pressure;Samples;Min_cycle;Max_cycle;Signal;HPM_P1;HPM_P2
2023/08/02 00:00:09;;;;;;;;;;;18.10;99.90;;;;;;7320186;19;9463;-83
2023/08/02 00:02:40;;;;;;;;;;;18.10;99.90;;;;;;7320113;19;9509;-83
2023/08/02 00:05:10;;;;;;;;;;;18.00;99.90;;;;;;7321312;19;9213;-83
2023/08/02 00:07:38;;;;;;;;;;;18.10;99.90;;;;;;7320476;19;9410;-82
2023/08/02 00:10:09;;;;;;;;;;;18.00;99.90;;;;;;7321217;19;9230;-84
2023/08/02 00:12:38;;;;;;;;;;;18.00;99.90;;;;;;7320251;19;10743;-84
2023/08/02 00:15:08;;;;;;;;;;;17.80;99.90;;;;;;7321811;19;9229;-83
2023/08/02 00:17:37;;;;;;;;;;;17.70;99.90;;;;;;7319980;19;9287;-83
2023/08/02 00:20:12;;;;;;;;;;;17.60;99.90;;;;;;7321826;19;10211;-83
2023/08/02 00:22:41;;;;;;;;;;;17.60;99.90;;;;;;7319137;19;10332;-84
2023/08/02 00:25:11;;;;;;;;;;;17.50;99.90;;;;;;7320548;19;9462;-83
2023/08/02 00:27:40;;;;;;;;;;;17.30;99.90;;;;;;7318792;19;9193;-84
2023/08/02 00:30:10;;;;;;;;;;;17.20;99.90;;;;;;7321133;19;9352;-83
2023/08/02 00:32:46;;;;;;;;;;;17.10;99.90;;;;;;7321095;19;9384;-83
2023/08/02 00:35:19;;;;;;;;;;;17.10;99.90;;;;;;7321722;19;9129;-84
2023/08/02 00:37:48;;;;;;;;;;;17.20;99.90;;;;;;7320267;19;9485;-83
2023/08/02 00:40:17;;;;;;;;;;;17.10;99.90;;;;;;7321609;19;11276;-83
2023/08/02 00:42:46;;;;;;;;;;;17.20;99.90;;;;;;7319125;19;10697;-83
2023/08/02 00:45:15;;;;;;;;;;;17.10;99.90;;;;;;7320855;19;10207;-84
2023/08/02 00:47:44;;;;;;;;;;;17.20;99.90;;;;;;7320393;19;9324;-83
2023/08/02 00:50:13;;;;;;;;;;;17.20;99.90;;;;;;7320566;19;10317;-84
2023/08/02 00:52:45;;;;;;;;;;;17.10;99.90;;;;;;7320765;19;9314;-83
2023/08/02 00:55:14;;;;;;;;;;;16.90;99.90;;;;;;7319268;19;9390;-83
2023/08/02 00:57:42;;;;;;;;;;;16.80;99.90;;;;;;7319692;19;9837;-82
2023/08/02 01:00:13;;;;;;;;;;;16.70;99.90;;;;;;7318001;19;9249;-82
2023/08/02 01:02:45;;;;;;;;;;;16.70;99.90;;;;;;7316142;19;10691;-83
2023/08/02 01:05:14;;;;;;;;;;;16.70;99.90;;;;;;7318592;19;9556;-83
2023/08/02 01:07:52;;;;;;;;;;;16.70;99.90;;;;;;7319512;19;9225;-84
2023/08/02 01:10:29;;;;;;;;;;;16.70;99.90;;;;;;7318625;19;9320;-83
2023/08/02 01:13:01;;;;;;;;;;;16.60;99.90;;;;;;7319301;19;9285;-82
2023/08/02 01:15:30;;;;;;;;;;;16.60;99.90;;;;;;7320379;19;9198;-83
2023/08/02 01:18:00;;;;;;;;;;;16.50;99.90;;;;;;7319977;19;9190;-83
2023/08/02 01:20:32;;;;;;;;;;;16.50;99.90;;;;;;7319107;19;9237;-83
2023/08/02 01:23:01;;;;;;;;;;;16.40;99.90;;;;;;7318636;19;10319;-83
2023/08/02 01:25:34;;;;;;;;;;;16.30;99.90;;;;;;7318271;19;9265;-83
2023/08/02 01:28:09;;;;;;;;;;;16.30;99.90;;;;;;7317953;19;9617;-84
2023/08/02 01:30:41;;;;;;;;;;;16.30;99.90;;;;;;7319558;19;9182;-83
2023/08/02 01:33:11;;;;;;;;;;;16.30;99.90;;;;;;7319612;19;9458;-82
2023/08/02 01:35:43;;;;;;;;;;;16.20;99.90;;;;;;7319690;19;9427;-83
2023/08/02 01:38:14;;;;;;;;;;;16.20;99.90;;;;;;7319469;19;9312;-83
2023/08/02 01:40:43;;;;;;;;;;;16.30;99.90;;;;;;7318984;19;9459;-83
2023/08/02 01:43:12;;;;;;;;;;;16.40;99.90;;;;;;7317783;19;9277;-83
2023/08/02 01:45:41;;;;;;;;;;;16.50;99.90;;;;;;7318037;19;9498;-83
2023/08/02 01:48:10;;;;;;;;;;;16.50;99.90;;;;;;7325109;19;9333;-84
2023/08/02 01:50:41;;;;;;;;;;;16.50;99.90;;;;;;7324289;19;9187;-84
2023/08/02 01:53:10;;;;;;;;;;;16.50;99.90;;;;;;7326009;19;9408;-83
2023/08/02 01:55:39;;;;;;;;;;;16.50;99.90;;;;;;7324296;19;9269;-83
2023/08/02 01:58:08;;;;;;;;;;;16.50;99.90;;;;;;7325368;19;11183;-83
2023/08/02 02:00:37;;;;;;;;;;;16.60;99.90;;;;;;7320521;19;9664;-83
2023/08/02 02:03:06;;;;;;;;;;;16.50;99.90;;;;;;7325190;19;9457;-84
2023/08/02 02:05:35;;;;;;;;;;;16.60;99.90;;;;;;7324136;19;9267;-83
2023/08/02 02:08:06;;;;;;;;;;;16.50;99.90;;;;;;7325634;19;10687;-85
2023/08/02 02:10:36;;;;;;;;;;;16.50;99.90;;;;;;7324785;19;9562;-83
2023/08/02 02:13:06;;;;;;;;;;;16.50;99.90;;;;;;7325692;19;9119;-83
2023/08/02 02:15:35;;;;;;;;;;;16.40;99.90;;;;;;7325282;19;9301;-83
2023/08/02 02:18:04;;;;;;;;;;;16.40;99.90;;;;;;7325244;19;9294;-83
2023/08/02 02:20:32;;;;;;;;;;;16.40;99.90;;;;;;7325341;19;10712;-83
2023/08/02 02:23:01;;;;;;;;;;;16.40;99.90;;;;;;7323637;19;9246;-83
2023/08/02 02:25:33;;;;;;;;;;;16.40;99.90;;;;;;7324703;19;9327;-83
2023/08/02 02:28:02;;;;;;;;;;;16.40;99.90;;;;;;7322288;19;9547;-84
2023/08/02 02:30:31;;;;;;;;;;;16.40;99.90;;;;;;7324357;19;9573;-83
2023/08/02 02:33:00;;;;;;;;;;;16.30;99.90;;;;;;7323723;19;9688;-83
2023/08/02 02:35:29;;;;;;;;;;;16.30;99.90;;;;;;7325152;19;9000;-83
2023/08/02 02:37:58;;;;;;;;;;;16.30;99.90;;;;;;7323715;19;9226;-84
2023/08/02 02:40:27;;;;;;;;;;;16.20;99.90;;;;;;7325039;19;9468;-84
2023/08/02 02:42:58;;;;;;;;;;;16.20;99.90;;;;;;7324364;19;9280;-83
2023/08/02 02:45:27;;;;;;;;;;;16.20;99.90;;;;;;7326446;19;9453;-84
2023/08/02 02:47:56;;;;;;;;;;;16.20;99.90;;;;;;7324269;19;9265;-83
2023/08/02 02:50:25;;;;;;;;;;;16.20;99.90;;;;;;7324044;19;9578;-83
2023/08/02 02:52:54;;;;;;;;;;;16.20;99.90;;;;;;7324512;19;9288;-83
2023/08/02 02:55:23;;;;;;;;;;;16.20;99.90;;;;;;7323666;19;9486;-83
2023/08/02 02:57:53;;;;;;;;;;;16.10;99.90;;;;;;7322722;19;9174;-84
2023/08/02 03:00:24;;;;;;;;;;;16.10;99.90;;;;;;7319390;19;11335;-83
2023/08/02 03:02:53;;;;;;;;;;;16.00;99.90;;;;;;7323844;19;8944;-83
2023/08/02 03:05:22;;;;;;;;;;;16.00;99.90;;;;;;7322602;19;9214;-83
2023/08/02 03:07:51;;;;;;;;;;;15.90;99.90;;;;;;7322823;19;10333;-84
2023/08/02 03:10:20;;;;;;;;;;;15.80;99.90;;;;;;7322231;19;9134;-83
2023/08/02 03:12:50;;;;;;;;;;;15.80;99.90;;;;;;7322982;19;9427;-83
2023/08/02 03:15:19;;;;;;;;;;;15.70;99.90;;;;;;7322137;19;10573;-84
2023/08/02 03:17:50;;;;;;;;;;;15.70;99.90;;;;;;7323450;19;9245;-83
2023/08/02 03:20:19;;;;;;;;;;;15.70;99.90;;;;;;7321913;19;9320;-83
2023/08/02 03:22:48;;;;;;;;;;;15.70;99.90;;;;;;7323392;19;9510;-83
2023/08/02 03:25:17;;;;;;;;;;;15.80;99.90;;;;;;7321890;19;9258;-84
2023/08/02 03:27:46;;;;;;;;;;;15.70;99.90;;;;;;7322108;19;9463;-84
2023/08/02 03:30:15;;;;;;;;;;;15.70;99.90;;;;;;7323120;19;9476;-83
2023/08/02 03:32:44;;;;;;;;;;;15.60;99.90;;;;;;7321680;19;9261;-84
2023/08/02 03:35:16;;;;;;;;;;;15.60;99.90;;;;;;7322546;19;9308;-83
2023/08/02 03:37:45;;;;;;;;;;;15.60;99.90;;;;;;7322116;19;10211;-83
2023/08/02 03:40:14;;;;;;;;;;;15.70;99.90;;;;;;7322701;19;9078;-83
2023/08/02 03:42:43;;;;;;;;;;;15.70;99.90;;;;;;7321220;19;9688;-83
2023/08/02 03:45:13;;;;;;;;;;;15.70;99.90;;;;;;7320698;19;9222;-83
2023/08/02 03:47:41;;;;;;;;;;;15.70;99.90;;;;;;7321643;19;9229;-84
2023/08/02 03:50:11;;;;;;;;;;;15.70;99.90;;;;;;7322033;19;9309;-83
2023/08/02 03:52:42;;;;;;;;;;;15.60;99.90;;;;;;7321316;19;9373;-84
2023/08/02 03:55:11;;;;;;;;;;;15.70;99.90;;;;;;7322583;19;9410;-83
2023/08/02 03:57:41;;;;;;;;;;;15.70;99.90;;;;;;7321318;19;11241;-83
2023/08/02 04:00:12;;;;;;;;;;;15.70;99.90;;;;;;7320636;19;9302;-84
2023/08/02 04:02:41;;;;;;;;;;;15.60;99.90;;;;;;7322489;19;9462;-83
2023/08/02 04:05:10;;;;;;;;;;;15.60;99.90;;;;;;7320182;19;9273;-83
2023/08/02 04:07:41;;;;;;;;;;;15.50;99.90;;;;;;7321290;19;9210;-83
2023/08/02 04:10:11;;;;;;;;;;;15.50;99.90;;;;;;7319485;19;9335;-83
2023/08/02 04:12:40;;;;;;;;;;;15.50;99.90;;;;;;7321887;19;9731;-83
2023/08/02 04:15:11;;;;;;;;;;;15.50;99.90;;;;;;7320362;19;9212;-83
2023/08/02 04:17:40;;;;;;;;;;;15.50;99.90;;;;;;7321936;19;9469;-84
2023/08/02 04:20:11;;;;;;;;;;;15.60;99.90;;;;;;7320761;19;9256;-84
2023/08/02 04:22:42;;;;;;;;;;;15.70;99.90;;;;;;7321426;19;9253;-83
2023/08/02 04:25:11;;;;;;;;;;;15.80;99.90;;;;;;7318875;19;9237;-83
2023/08/02 04:27:40;;;;;;;;;;;15.90;99.90;;;;;;7320149;19;9272;-83
2023/08/02 04:30:11;;;;;;;;;;;16.00;99.90;;;;;;7320091;19;9323;-83
2023/08/02 04:32:40;;;;;;;;;;;16.00;99.90;;;;;;7320782;19;10717;-83
2023/08/02 04:35:10;;;;;;;;;;;16.10;99.90;;;;;;7319761;19;9191;-83
2023/08/02 04:37:41;;;;;;;;;;;16.10;99.90;;;;;;7320850;19;9137;-84
2023/08/02 04:40:12;;;;;;;;;;;16.20;99.90;;;;;;7320105;19;9478;-83
2023/08/02 04:42:41;;;;;;;;;;;16.20;99.90;;;;;;7321706;19;9368;-83
2023/08/02 04:45:11;;;;;;;;;;;16.30;99.90;;;;;;7318296;19;9346;-83
2023/08/02 04:47:40;;;;;;;;;;;16.30;99.90;;;;;;7321671;19;8988;-84
2023/08/02 04:50:10;;;;;;;;;;;16.30;99.90;;;;;;7321388;19;9270;-83
2023/08/02 04:52:42;;;;;;;;;;;16.30;99.90;;;;;;7322309;19;9525;-83
2023/08/02 04:55:12;;;;;;;;;;;16.30;99.90;;;;;;7321233;19;9116;-83
2023/08/02 04:57:41;;;;;;;;;;;16.30;99.90;;;;;;7321129;19;9504;-84
2023/08/02 05:00:11;;;;;;;;;;;16.40;99.90;;;;;;7319447;19;9257;-83
2023/08/02 05:02:40;;;;;;;;;;;16.50;99.90;;;;;;7319167;19;9328;-83
2023/08/02 05:05:10;;;;;;;;;;;16.60;99.90;;;;;;7318927;19;9477;-83
2023/08/02 05:07:42;;;;;;;;;;;16.60;99.90;;;;;;7318633;19;9341;-83
2023/08/02 05:10:12;;;;;;;;;;;16.50;99.90;;;;;;7320092;19;9186;-83
2023/08/02 05:12:42;;;;;;;;;;;16.50;99.90;;;;;;7318822;19;9186;-84
2023/08/02 05:15:12;;;;;;;;;;;16.60;99.90;;;;;;7319645;19;9208;-84
2023/08/02 05:17:41;;;;;;;;;;;16.60;99.90;;;;;;7318204;19;11477;-83
2023/08/02 05:20:11;;;;;;;;;;;16.60;99.90;;;;;;7320195;19;9221;-83
2023/08/02 05:22:43;;;;;;;;;;;16.60;99.90;;;;;;7325890;19;9450;-83
2023/08/02 05:25:12;;;;;;;;;;;16.60;99.90;;;;;;7324460;19;9237;-84
2023/08/02 05:27:41;;;;;;;;;;;16.60;99.90;;;;;;7323944;19;9367;-83
2023/08/02 05:30:12;;;;;;;;;;;16.50;99.90;;;;;;7326695;19;9293;-83
2023/08/02 05:32:40;;;;;;;;;;;16.40;99.90;;;;;;7325754;19;10316;-83
2023/08/02 05:35:10;;;;;;;;;;;16.30;99.90;;;;;;7326698;19;9470;-83
2023/08/02 05:37:39;;;;;;;;;;;16.40;99.90;;;;;;7326139;19;9435;-83
2023/08/02 05:40:12;;;;;;;;;;;16.40;99.90;;;;;;7326659;19;9341;-83
2023/08/02 05:42:41;;;;;;;;;;;16.40;99.90;;;;;;7325560;19;9109;-83
2023/08/02 05:45:12;;;;;;;;;;;16.40;99.90;;;;;;7325055;19;9203;-83
2023/08/02 05:47:41;;;;;;;;;;;16.30;99.90;;;;;;7326617;19;9445;-83
2023/08/02 05:50:11;;;;;;;;;;;16.30;99.90;;;;;;7326537;19;9411;-84
2023/08/02 05:52:40;;;;;;;;;;;16.20;99.90;;;;;;7326010;19;10378;-83
2023/08/02 05:55:12;;;;;;;;;;;16.20;99.90;;;;;;7324772;19;9528;-83
2023/08/02 05:57:41;;;;;;;;;;;16.20;99.90;;;;;;7325999;19;8945;-83
2023/08/02 06:00:11;;;;;;;;;;;16.40;99.90;;;;;;7323067;19;9457;-83
2023/08/02 06:02:41;;;;;;;;;;;16.40;99.90;;;;;;7325507;19;10166;-83
2023/08/02 06:05:10;;;;;;;;;;;16.60;99.90;;;;;;7322779;19;9243;-84
2023/08/02 06:07:39;;;;;;;;;;;16.60;99.90;;;;;;7325792;19;9470;-82
2023/08/02 06:10:12;;;;;;;;;;;16.60;99.90;;;;;;7324562;19;9510;-83
2023/08/02 06:12:40;;;;;;;;;;;16.70;99.90;;;;;;7325707;19;9462;-83
2023/08/02 06:15:11;;;;;;;;;;;16.90;99.90;;;;;;7324247;19;10460;-84
2023/08/02 06:17:41;;;;;;;;;;;16.70;99.90;;;;;;7325274;19;9351;-83
2023/08/02 06:20:12;;;;;;;;;;;16.80;99.90;;;;;;7323545;19;9552;-83
2023/08/02 06:22:41;;;;;;;;;;;16.90;99.90;;;;;;7324999;19;9464;-84
2023/08/02 06:25:12;;;;;;;;;;;16.90;99.90;;;;;;7322403;19;9225;-83
2023/08/02 06:27:41;;;;;;;;;;;17.00;99.90;;;;;;7322986;19;9462;-83
2023/08/02 06:30:11;;;;;;;;;;;17.10;99.90;;;;;;7323714;19;9446;-83
2023/08/02 06:32:40;;;;;;;;;;;17.00;99.90;;;;;;7323462;19;9187;-83
2023/08/02 06:35:10;;;;;;;;;;;17.00;99.90;;;;;;7323262;19;9501;-82
2023/08/02 06:37:39;;;;;;;;;;;17.10;99.90;;;;;;7325885;19;9360;-83
2023/08/02 06:40:13;;;;;;;;;;;17.10;99.90;;;;;;7323883;19;9486;-84
2023/08/02 06:42:42;;;;;;;;;;;17.10;99.90;;;;;;7325356;19;9547;-83
2023/08/02 06:45:12;;;;;;;;;;;17.10;99.90;;;;;;7320701;19;12539;-82
2023/08/02 06:47:41;;;;;;;;;;;17.10;99.90;;;;;;7323635;19;10593;-84
2023/08/02 06:50:10;;;;;;;;;;;17.10;99.90;;;;;;7324636;19;9298;-84
2023/08/02 06:52:39;;;;;;;;;;;17.10;99.90;;;;;;7324667;19;9087;-83
2023/08/02 06:55:12;;;;;;;;;;;17.00;99.90;;;;;;7324579;19;9159;-84
2023/08/02 06:57:41;;;;;;;;;;;17.10;99.90;;;;;;7325055;19;9251;-83
2023/08/02 07:00:12;;;;;;;;;;;17.20;99.90;;;;;;7324577;19;9285;-83
2023/08/02 07:02:41;;;;;;;;;;;17.10;99.90;;;;;;7323743;19;9135;-84
2023/08/02 07:05:10;;;;;;;;;;;17.20;99.90;;;;;;7322650;19;9414;-84
2023/08/02 07:07:39;;;;;;;;;;;17.20;99.90;;;;;;7322941;19;9072;-84
2023/08/02 07:10:09;;;;;;;;;;;17.30;99.90;;;;;;7323042;19;9538;-83
2023/08/02 07:12:40;;;;;;;;;;;17.40;99.90;;;;;;7321948;19;9438;-83
2023/08/02 07:15:12;;;;;;;;;;;17.40;99.90;;;;;;7323670;19;9256;-83
2023/08/02 07:17:44;;;;;;;;;;;17.40;99.90;;;;;;7321729;19;9416;-83
2023/08/02 07:20:14;;;;;;;;;;;17.60;99.90;;;;;;7323092;19;9202;-83
2023/08/02 07:22:45;;;;;;;;;;;17.60;99.90;;;;;;7321317;19;9528;-83
2023/08/02 07:25:14;;;;;;;;;;;17.50;99.90;;;;;;7322834;19;9238;-83
2023/08/02 07:27:45;;;;;;;;;;;17.50;99.90;;;;;;7320615;19;9560;-83
2023/08/02 07:30:14;;;;;;;;;;;17.60;99.90;;;;;;7322543;19;9268;-83
2023/08/02 07:32:43;;;;;;;;;;;17.60;99.90;;;;;;7322003;19;9296;-83
2023/08/02 07:35:13;;;;;;;;;;;17.70;99.90;;;;;;7321983;19;9600;-83
2023/08/02 07:37:42;;;;;;;;;;;17.70;99.90;;;;;;7321447;19;9273;-83
2023/08/02 07:40:13;;;;;;;;;;;17.70;99.90;;;;;;7322262;19;9280;-83
2023/08/02 07:42:44;;;;;;;;;;;17.80;99.90;;;;;;7321319;19;9253;-84
2023/08/02 07:45:14;;;;;;;;;;;17.80;99.90;;;;;;7319194;19;9229;-83
2023/08/02 07:47:43;;;;;;;;;;;17.80;99.90;;;;;;7321049;19;9732;-83
2023/08/02 07:50:12;;;;;;;;;;;17.80;99.90;;;;;;7322713;19;9000;-83
2023/08/02 07:52:41;;;;;;;;;;;17.80;99.90;;;;;;7322600;19;9447;-84
2023/08/02 07:55:11;;;;;;;;;;;17.80;99.90;;;;;;7321798;19;9463;-83
2023/08/02 07:57:40;;;;;;;;;;;17.90;99.90;;;;;;7322311;19;9329;-84
2023/08/02 08:00:13;;;;;;;;;;;17.90;99.90;;;;;;7319933;19;9140;-83
2023/08/02 08:02:42;;;;;;;;;;;18.00;99.90;;;;;;7322691;19;9236;-83
2023/08/02 08:05:12;;;;;;;;;;;18.00;99.90;;;;;;7320456;19;9504;-83
2023/08/02 08:07:41;;;;;;;;;;;18.00;99.90;;;;;;7321976;19;9630;-83
2023/08/02 08:10:11;;;;;;;;;;;18.00;99.90;;;;;;7321027;19;9359;-83
2023/08/02 08:12:40;;;;;;;;;;;17.90;99.90;;;;;;7321490;19;9305;-83
2023/08/02 08:15:12;;;;;;;;;;;17.90;99.90;;;;;;7320721;19;9257;-84
2023/08/02 08:17:42;;;;;;;;;;;17.80;99.90;;;;;;7321249;19;9344;-83
2023/08/02 08:20:12;;;;;;;;;;;17.70;99.90;;;;;;7320102;19;9177;-83
2023/08/02 08:22:41;;;;;;;;;;;17.60;99.90;;;;;;7321037;19;9429;-83
2023/08/02 08:25:11;;;;;;;;;;;17.60;99.90;;;;;;7319330;19;9442;-83
2023/08/02 08:27:40;;;;;;;;;;;17.70;99.90;;;;;;7320284;19;11097;-84
2023/08/02 08:30:13;;;;;;;;;;;17.70;99.90;;;;;;7319750;19;9419;-84
2023/08/02 08:32:42;;;;;;;;;;;17.60;99.90;;;;;;7321777;19;9405;-83
2023/08/02 08:35:11;;;;;;;;;;;17.40;99.90;;;;;;7319482;19;9261;-83
2023/08/02 08:37:41;;;;;;;;;;;17.40;99.90;;;;;;7321196;19;9493;-83
2023/08/02 08:40:20;;;;;;;;;;;17.30;99.90;;;;;;7319116;19;9328;-83
2023/08/02 08:42:53;;;;;;;;;;;17.20;99.90;;;;;;7320681;19;9751;-84
2023/08/02 08:45:26;;;;;;;;;;;17.20;99.90;;;;;;7319422;19;9787;-84
2023/08/02 08:47:56;;;;;;;;;;;17.10;99.90;;;;;;7320857;19;9492;-85
2023/08/02 08:50:26;;;;;;;;;;;17.00;99.90;;;;;;7318864;19;9214;-83
2023/08/02 08:52:58;;;;;;;;;;;16.90;99.90;;;;;;7320516;19;9150;-84
2023/08/02 08:55:31;;;;;;;;;;;16.80;99.90;;;;;;7321213;19;9495;-84
2023/08/02 08:58:00;;;;;;;;;;;16.70;99.90;;;;;;7327780;19;9225;-84
2023/08/02 09:00:32;;;;;;;;;;;16.60;99.90;;;;;;7324380;19;9536;-84
2023/08/02 09:03:01;;;;;;;;;;;16.50;99.90;;;;;;7327967;19;9289;-84
2023/08/02 09:05:33;;;;;;;;;;;16.50;99.90;;;;;;7325579;19;8944;-83
2023/08/02 09:08:02;;;;;;;;;;;16.40;99.90;;;;;;7328296;19;9267;-84
2023/08/02 09:10:31;;;;;;;;;;;16.40;99.90;;;;;;7327404;19;9221;-84
2023/08/02 09:13:00;;;;;;;;;;;16.30;99.90;;;;;;7328003;19;9293;-84
2023/08/02 09:15:32;;;;;;;;;;;16.20;99.90;;;;;;7326946;19;9689;-84
2023/08/02 09:18:02;;;;;;;;;;;16.10;99.90;;;;;;7327255;19;9540;-83
2023/08/02 09:20:31;;;;;;;;;;;16.10;99.90;;;;;;7326303;19;9590;-84
2023/08/02 09:23:00;;;;;;;;;;;16.00;99.90;;;;;;7326780;19;9537;-85
2023/08/02 09:25:31;;;;;;;;;;;16.00;99.90;;;;;;7326210;19;9526;-83
2023/08/02 09:28:01;;;;;;;;;;;16.00;99.90;;;;;;7325519;19;9258;-84
2023/08/02 09:30:34;;;;;;;;;;;16.00;99.90;;;;;;7326900;19;9248;-83
2023/08/02 09:33:06;;;;;;;;;;;16.00;99.90;;;;;;7327430;19;9285;-84
2023/08/02 09:35:51;;;;;;;;;;;16.00;99.90;;;;;;7326500;19;9678;-84
2023/08/02 09:38:20;;;;;;;;;;;16.00;99.90;;;;;;7326491;19;10390;-84
2023/08/02 09:40:49;;;;;;;;;;;16.20;99.90;;;;;;7325590;19;9588;-84
2023/08/02 09:43:18;;;;;;;;;;;16.20;99.90;;;;;;7326305;19;9155;-83
2023/08/02 09:45:50;;;;;;;;;;;16.30;99.90;;;;;;7324702;19;9584;-83
2023/08/02 09:48:19;;;;;;;;;;;16.20;99.90;;;;;;7326494;19;10152;-84
2023/08/02 09:50:55;;;;;;;;;;;16.30;99.90;;;;;;7324895;19;9224;-84
2023/08/02 09:53:25;;;;;;;;;;;16.30;99.90;;;;;;7326350;19;9275;-85
2023/08/02 09:55:58;;;;;;;;;;;16.40;99.90;;;;;;7325343;19;9286;-85
2023/08/02 09:58:34;;;;;;;;;;;16.30;99.90;;;;;;7326425;19;9005;-83
2023/08/02 10:01:06;;;;;;;;;;;16.30;99.90;;;;;;7322157;19;9300;-84
2023/08/02 10:03:36;;;;;;;;;;;16.40;99.90;;;;;;7325592;19;10723;-85
2023/08/02 10:06:09;;;;;;;;;;;16.40;99.90;;;;;;7324167;19;9236;-83
2023/08/02 10:08:42;;;;;;;;;;;16.50;99.90;;;;;;7323653;19;9383;-85
2023/08/02 10:11:12;;;;;;;;;;;16.60;99.90;;;;;;7324910;19;9257;-84
2023/08/02 10:13:47;;;;;;;;;;;16.70;99.90;;;;;;7326023;19;8948;-84
2023/08/02 10:16:20;;;;;;;;;;;16.70;99.90;;;;;;7325974;19;10157;-83
2023/08/02 10:18:53;;;;;;;;;;;16.80;99.90;;;;;;7325527;19;9119;-84
2023/08/02 10:21:24;;;;;;;;;;;16.80;99.90;;;;;;7325826;19;9230;-84
2023/08/02 10:23:54;;;;;;;;;;;16.90;99.90;;;;;;7325820;19;9601;-84
2023/08/02 10:26:25;;;;;;;;;;;16.90;99.90;;;;;;7324575;19;9054;-84
2023/08/02 10:28:55;;;;;;;;;;;16.90;99.90;;;;;;7325496;19;9261;-84
2023/08/02 10:31:28;;;;;;;;;;;17.00;99.90;;;;;;7325407;19;9131;-84
2023/08/02 10:33:57;;;;;;;;;;;17.10;99.90;;;;;;7325415;19;9504;-83
2023/08/02 10:36:26;;;;;;;;;;;17.00;99.90;;;;;;7324949;19;9201;-83
2023/08/02 10:38:56;;;;;;;;;;;17.00;99.90;;;;;;7323590;19;10879;-84
2023/08/02 10:41:27;;;;;;;;;;;17.10;99.90;;;;;;7323771;19;9348;-84
2023/08/02 10:44:10;;;;;;;;;;;17.10;99.90;;;;;;7325295;19;9394;-84
2023/08/02 10:46:41;;;;;;;;;;;17.00;99.90;;;;;;7323252;19;9452;-84
2023/08/02 10:49:39;;;;;;;;;;;17.00;99.90;;;;;;7323210;19;9414;-85
2023/08/02 10:52:27;;;;;;;;;;;17.00;99.90;;;;;;7324506;19;9244;-84
2023/08/02 10:55:08;;;;;;;;;;;16.90;99.90;;;;;;7324652;19;9294;-84
2023/08/02 10:57:37;;;;;;;;;;;16.90;99.90;;;;;;7324790;19;9707;-84
2023/08/02 11:00:23;;;;;;;;;;;16.90;99.90;;;;;;7323258;19;9582;-84
2023/08/02 11:02:56;;;;;;;;;;;17.00;99.90;;;;;;7323647;19;9256;-85
2023/08/02 11:05:43;;;;;;;;;;;17.00;99.90;;;;;;7323769;19;9229;-85
2023/08/02 11:08:13;;;;;;;;;;;17.00;99.90;;;;;;7324407;19;9271;-84
2023/08/02 11:10:52;;;;;;;;;;;17.00;99.90;;;;;;7324962;19;9273;-83
2023/08/02 11:13:23;;;;;;;;;;;17.00;99.90;;;;;;7325046;19;9148;-84
2023/08/02 11:16:04;;;;;;;;;;;17.00;99.90;;;;;;7331995;19;9125;-85
2023/08/02 11:18:37;;;;;;;;;;;16.90;99.90;;;;;;7327962;19;8945;-86
2023/08/02 11:21:11;;;;;;;;;;;17.00;99.90;;;;;;7324214;19;9624;-85
2023/08/02 11:23:40;;;;;;;;;;;17.00;99.90;;;;;;7322896;19;9317;-84
2023/08/02 11:26:11;;;;;;;;;;;17.00;99.90;;;;;;7323498;19;9206;-84
2023/08/02 11:28:42;;;;;;;;;;;17.00;99.90;;;;;;7321177;19;9206;-84
2023/08/02 11:31:11;;;;;;;;;;;17.00;99.90;;;;;;7323503;19;9271;-85
2023/08/02 11:33:43;;;;;;;;;;;17.10;99.90;;;;;;7322208;19;9150;-86
2023/08/02 11:36:13;;;;;;;;;;;17.10;99.90;;;;;;7322482;19;9289;-84
2023/08/02 11:38:42;;;;;;;;;;;17.10;99.90;;;;;;7322376;19;10908;-84
2023/08/02 11:41:19;;;;;;;;;;;17.10;99.90;;;;;;7323076;19;9230;-83
2023/08/02 11:43:49;;;;;;;;;;;17.10;99.90;;;;;;7322092;19;9481;-84
2023/08/02 11:46:21;;;;;;;;;;;17.10;99.90;;;;;;7322044;19;9253;-84
2023/08/02 11:48:53;;;;;;;;;;;17.10;99.90;;;;;;7321830;19;8944;-84
2023/08/02 11:51:24;;;;;;;;;;;17.20;99.90;;;;;;7322606;19;9241;-84
2023/08/02 11:53:55;;;;;;;;;;;17.30;99.90;;;;;;7321251;19;9224;-83
2023/08/02 11:56:25;;;;;;;;;;;17.30;99.90;;;;;;7322087;19;9576;-85
2023/08/02 11:58:55;;;;;;;;;;;17.40;99.90;;;;;;7321543;19;9224;-84
2023/08/02 12:01:25;;;;;;;;;;;17.40;99.90;;;;;;7319772;19;9277;-84
2023/08/02 12:04:03;;;;;;;;;;;17.40;99.90;;;;;;7321309;19;9223;-83
2023/08/02 12:06:48;;;;;;;;;;;17.30;99.90;;;;;;7321879;19;9220;-83
2023/08/02 12:09:17;;;;;;;;;;;17.30;99.90;;;;;;7322802;19;9223;-84
2023/08/02 12:11:47;;;;;;;;;;;17.30;99.90;;;;;;7321665;19;9197;-84
2023/08/02 12:14:28;;;;;;;;;;;17.30;99.90;;;;;;7322730;19;10601;-84
2023/08/02 12:16:57;;;;;;;;;;;17.30;99.90;;;;;;7320919;19;9411;-84
2023/08/02 12:19:44;;;;;;;;;;;17.40;99.90;;;;;;7322655;19;9120;-84
2023/08/02 12:22:24;;;;;;;;;;;17.50;99.90;;;;;;7321030;19;9342;-84
2023/08/02 12:25:06;;;;;;;;;;;17.60;99.90;;;;;;7322295;19;9210;-85
2023/08/02 12:27:36;;;;;;;;;;;17.60;99.90;;;;;;7320064;19;9182;-84
2023/08/02 12:30:15;;;;;;;;;;;17.50;99.90;;;;;;7319181;19;9269;-84
2023/08/02 12:32:44;;;;;;;;;;;17.60;99.90;;;;;;7321945;19;11289;-84
2023/08/02 12:35:18;;;;;;;;;;;17.70;99.90;;;;;;7319804;19;9333;-84
2023/08/02 12:37:47;;;;;;;;;;;17.80;99.90;;;;;;7320792;19;9346;-84
2023/08/02 12:40:16;;;;;;;;;;;18.10;99.90;;;;;;7320007;19;9185;-83
2023/08/02 12:42:45;;;;;;;;;;;18.20;99.90;;;;;;7320302;19;9381;-84
2023/08/02 12:45:15;;;;;;;;;;;18.30;99.90;;;;;;7319709;19;9533;-84
2023/08/02 12:47:44;;;;;;;;;;;18.40;99.90;;;;;;7319489;19;9309;-84
2023/08/02 12:50:16;;;;;;;;;;;18.40;99.90;;;;;;7319808;19;9237;-84
2023/08/02 12:52:45;;;;;;;;;;;18.50;99.90;;;;;;7320672;19;9476;-83
2023/08/02 12:55:14;;;;;;;;;;;18.50;99.90;;;;;;7318914;19;9508;-83
2023/08/02 12:57:43;;;;;;;;;;;18.50;99.90;;;;;;7320049;19;9167;-84
2023/08/02 13:00:13;;;;;;;;;;;18.70;99.90;;;;;;7318491;19;9586;-84
2023/08/02 13:02:42;;;;;;;;;;;18.90;99.90;;;;;;7320319;19;9264;-84
2023/08/02 13:05:11;;;;;;;;;;;19.00;99.90;;;;;;7320280;19;9276;-83
2023/08/02 13:07:43;;;;;;;;;;;19.10;99.90;;;;;;7319186;19;9233;-84
2023/08/02 13:10:12;;;;;;;;;;;19.20;99.90;;;;;;7320758;19;9500;-84
2023/08/02 13:12:42;;;;;;;;;;;19.30;99.90;;;;;;7320578;19;11419;-84
2023/08/02 13:15:12;;;;;;;;;;;19.30;99.90;;;;;;7319996;19;9253;-84
2023/08/02 13:17:42;;;;;;;;;;;19.30;99.90;;;;;;7319091;19;9221;-84
2023/08/02 13:20:13;;;;;;;;;;;19.30;99.90;;;;;;7320620;19;9123;-84
2023/08/02 13:22:46;;;;;;;;;;;19.50;99.90;;;;;;7320456;19;9190;-84
2023/08/02 13:25:16;;;;;;;;;;;19.60;99.90;;;;;;7322354;19;9305;-83
2023/08/02 13:28:05;;;;;;;;;;;19.60;99.90;;;;;;7319695;19;9301;-84
2023/08/02 13:30:35;;;;;;;;;;;19.90;99.90;;;;;;7319111;19;10687;-83
2023/08/02 13:33:05;;;;;;;;;;;20.10;99.90;;;;;;7319587;19;9013;-84
2023/08/02 13:35:34;;;;;;;;;;;20.40;99.90;;;;;;7318283;19;9212;-84
2023/08/02 13:38:05;;;;;;;;;;;20.50;99.90;;;;;;7319366;19;9165;-83
2023/08/02 13:40:35;;;;;;;;;;;20.60;99.90;;;;;;7318049;19;9225;-84
2023/08/02 13:43:03;;;;;;;;;;;20.60;99.90;;;;;;7325820;19;10681;-84
2023/08/02 13:45:32;;;;;;;;;;;20.50;99.90;;;;;;7326237;19;9333;-84
2023/08/02 13:48:02;;;;;;;;;;;20.60;99.90;;;;;;7324674;19;9161;-83
2023/08/02 13:50:32;;;;;;;;;;;20.60;99.90;;;;;;7326124;19;9331;-83
2023/08/02 13:53:01;;;;;;;;;;;20.70;99.90;;;;;;7325743;19;9585;-83
2023/08/02 13:55:33;;;;;;;;;;;20.80;99.90;;;;;;7325736;19;9543;-83
2023/08/02 13:58:03;;;;;;;;;;;20.80;99.90;;;;;;7324374;19;9288;-82
2023/08/02 14:00:33;;;;;;;;;;;20.90;99.90;;;;;;7323709;19;9415;-82
2023/08/02 14:03:02;;;;;;;;;;;20.90;99.90;;;;;;7324407;19;9533;-83
2023/08/02 14:05:31;;;;;;;;;;;20.90;99.90;;;;;;7325297;19;9608;-84
2023/08/02 14:07:59;;;;;;;;;;;20.80;99.90;;;;;;7322886;19;9454;-83
2023/08/02 14:10:28;;;;;;;;;;;20.60;99.90;;;;;;7324939;19;9477;-84
2023/08/02 14:13:00;;;;;;;;;;;20.50;99.90;;;;;;7323201;19;9249;-83
2023/08/02 14:15:29;;;;;;;;;;;20.40;99.90;;;;;;7324745;19;9175;-83
2023/08/02 14:17:58;;;;;;;;;;;20.40;99.90;;;;;;7323875;19;9318;-83
2023/08/02 14:20:27;;;;;;;;;;;20.30;99.90;;;;;;7326169;19;9403;-83
2023/08/02 14:22:57;;;;;;;;;;;20.10;99.90;;;;;;7321893;19;9670;-83
2023/08/02 14:25:26;;;;;;;;;;;20.00;99.90;;;;;;7324932;19;9513;-84
2023/08/02 14:27:55;;;;;;;;;;;19.80;99.90;;;;;;7322256;19;9445;-84
2023/08/02 14:30:27;;;;;;;;;;;19.80;99.90;;;;;;7325143;19;9186;-84
2023/08/02 14:32:56;;;;;;;;;;;19.70;99.90;;;;;;7324925;19;10405;-84
2023/08/02 14:35:25;;;;;;;;;;;19.70;99.90;;;;;;7324577;19;9469;-84
2023/08/02 14:37:54;;;;;;;;;;;19.70;99.90;;;;;;7325143;19;9249;-84
2023/08/02 14:40:23;;;;;;;;;;;19.60;99.90;;;;;;7323787;19;9276;-83
2023/08/02 14:42:52;;;;;;;;;;;19.60;99.90;;;;;;7324486;19;12790;-84
2023/08/02 14:45:21;;;;;;;;;;;19.70;99.90;;;;;;7323575;19;9249;-84
2023/08/02 14:47:52;;;;;;;;;;;19.80;99.90;;;;;;7323053;19;9643;-83